Time;durP1;ratioP1;P1;durP2;ratioP2;P2;SDS_P1;SDS_P2;PMS_P1;PMS_P2;Temp;Humidity;BMP_temperature;BMP_pressure;BME280_temperature;BME280_humidity;BME280_pressure;Samples;Min_cycle;Max_cycle;Signal;HPM_P1;HPM_P2
2022/07/07 00:00:49;;;;;;;16.55;9.05;;;14.80;99.90;;;;;;9182853;19;20037;-73
2022/07/07 00:03:54;;;;;;;14.70;8.85;;;14.90;99.90;;;;;;9186773;19;20048;-72
2022/07/07 00:06:59;;;;;;;18.73;10.25;;;15.00;99.90;;;;;;9186371;19;20475;-72
2022/07/07 00:10:03;;;;;;;18.10;9.57;;;14.60;99.90;;;;;;9184387;19;20479;-72
2022/07/07 00:13:08;;;;;;;18.73;9.73;;;14.80;99.90;;;;;;9180945;19;20089;-72
2022/07/07 00:16:15;;;;;;;17.95;9.70;;;14.80;99.90;;;;;;9187595;19;20360;-72
2022/07/07 00:19:20;;;;;;;15.82;9.32;;;14.80;99.90;;;;;;9182550;19;20510;-72
2022/07/07 00:22:24;;;;;;;19.83;9.70;;;15.90;99.90;;;;;;9182976;19;20438;-72
2022/07/07 00:25:27;;;;;;;16.42;10.20;;;14.90;99.90;;;;;;9186491;19;20018;-72
2022/07/07 00:28:31;;;;;;;16.88;9.60;;;15.00;99.90;;;;;;9184199;19;20070;-72
2022/07/07 00:31:38;;;;;;;17.40;9.38;;;14.90;99.90;;;;;;9186811;19;20023;-72
2022/07/07 00:34:42;;;;;;;15.05;8.82;;;14.90;99.90;;;;;;9182535;19;20014;-72
2022/07/07 00:37:46;;;;;;;15.07;8.88;;;15.10;99.90;;;;;;9182128;19;20052;-72
2022/07/07 00:40:52;;;;;;;19.30;9.00;;;14.90;99.90;;;;;;9185520;19;20014;-72
2022/07/07 00:43:55;;;;;;;14.27;7.80;;;15.00;99.90;;;;;;9182478;19;20010;-72
2022/07/07 00:47:02;;;;;;;13.57;7.70;;;15.00;99.90;;;;;;9180105;19;20021;-72
2022/07/07 00:50:07;;;;;;;11.65;7.40;;;15.00;99.90;;;;;;9183369;19;20010;-72
2022/07/07 00:53:11;;;;;;;13.55;7.40;;;15.00;99.90;;;;;;9181040;19;20018;-72
2022/07/07 00:56:14;;;;;;;12.95;7.78;;;15.00;99.90;;;;;;9184566;19;20380;-72
2022/07/07 00:59:19;;;;;;;12.45;7.20;;;15.00;99.90;;;;;;9182609;19;20041;-72
2022/07/07 01:02:25;;;;;;;14.52;8.23;;;15.10;99.90;;;;;;9181740;19;20014;-72
2022/07/07 01:05:31;;;;;;;16.25;7.95;;;14.80;99.90;;;;;;9183013;19;20015;-72
2022/07/07 01:08:35;;;;;;;18.73;8.45;;;15.00;99.90;;;;;;9179936;19;20489;-72
2022/07/07 01:11:50;;;;;;;13.07;8.02;;;14.80;99.90;;;;;;9183168;19;20033;-72
2022/07/07 01:14:54;;;;;;;14.50;7.43;;;14.90;99.90;;;;;;9182597;19;20074;-72
2022/07/07 01:18:01;;;;;;;16.48;8.40;;;14.80;99.90;;;;;;9181183;19;20022;-72
2022/07/07 01:21:07;;;;;;;15.70;7.68;;;16.00;99.90;;;;;;9179642;19;20018;-74
2022/07/07 01:24:13;;;;;;;16.17;7.43;;;15.00;99.90;;;;;;9181859;19;20408;-72
2022/07/07 01:27:19;;;;;;;15.13;7.72;;;15.40;99.90;;;;;;9181163;19;20513;-72
2022/07/07 01:30:23;;;;;;;12.05;6.85;;;14.90;99.90;;;;;;9181174;19;20011;-72
2022/07/07 01:33:27;;;;;;;13.73;6.72;;;14.90;99.90;;;;;;9181556;19;20412;-72
2022/07/07 01:36:31;;;;;;;14.38;6.95;;;14.90;99.90;;;;;;9180060;19;20015;-72
2022/07/07 01:39:39;;;;;;;9.30;5.65;;;14.80;99.90;;;;;;9177668;19;20435;-72
2022/07/07 01:42:43;;;;;;;7.53;5.10;;;14.80;99.90;;;;;;9178157;19;20010;-73
2022/07/07 01:45:46;;;;;;;7.35;5.15;;;14.90;99.90;;;;;;9183492;19;20022;-72
2022/07/07 01:48:50;;;;;;;7.55;4.20;;;14.90;99.90;;;;;;9178970;19;20497;-72
2022/07/07 01:51:54;;;;;;;7.68;4.40;;;14.80;99.90;;;;;;9176914;19;20022;-72
2022/07/07 01:55:01;;;;;;;6.70;3.70;;;14.80;99.90;;;;;;9181005;19;20051;-72
2022/07/07 01:58:05;;;;;;;7.78;3.58;;;14.60;99.90;;;;;;9180248;19;20050;-72
2022/07/07 02:01:09;;;;;;;6.05;3.35;;;14.70;99.90;;;;;;9183151;19;20014;-73
2022/07/07 02:04:13;;;;;;;7.95;3.28;;;14.80;99.90;;;;;;9182481;19;20019;-73
2022/07/07 02:07:16;;;;;;;5.15;3.25;;;14.70;99.90;;;;;;9179793;19;20018;-73
2022/07/07 02:13:39;;;;;;;5.53;2.90;;;14.70;99.90;;;;;;9183708;19;20487;-73
2022/07/07 02:16:43;;;;;;;5.35;2.92;;;14.70;99.90;;;;;;9184329;19;20011;-73
2022/07/07 02:19:47;;;;;;;4.05;2.60;;;14.70;99.90;;;;;;9182748;19;20018;-72
2022/07/07 02:22:52;;;;;;;6.35;2.78;;;14.70;99.90;;;;;;9178304;19;20088;-73
2022/07/07 02:25:58;;;;;;;5.80;2.90;;;14.60;99.90;;;;;;9177627;19;20015;-73
2022/07/07 02:29:02;;;;;;;8.15;2.90;;;14.60;99.90;;;;;;9178120;19;20381;-73
2022/07/07 02:32:08;;;;;;;6.60;2.85;;;15.10;99.90;;;;;;9182174;19;20078;-73
2022/07/07 02:35:12;;;;;;;7.53;2.97;;;14.60;99.90;;;;;;9179294;19;20504;-72
2022/07/07 02:38:16;;;;;;;5.88;2.95;;;14.90;99.90;;;;;;9179160;19;20022;-72
2022/07/07 02:41:22;;;;;;;7.93;2.90;;;14.70;99.90;;;;;;9179239;19;20074;-72
2022/07/07 02:44:26;;;;;;;10.32;3.15;;;14.70;99.90;;;;;;9179304;19;20051;-73
2022/07/07 02:47:30;;;;;;;8.32;3.20;;;14.50;99.90;;;;;;9180039;19;20043;-72
2022/07/07 02:50:34;;;;;;;9.48;3.25;;;14.70;99.90;;;;;;9178970;19;20021;-72
2022/07/07 02:53:38;;;;;;;8.20;3.17;;;14.70;99.90;;;;;;9179084;19;20018;-73
2022/07/07 02:56:45;;;;;;;7.97;2.90;;;14.80;99.90;;;;;;9175991;19;20007;-72
2022/07/07 02:59:49;;;;;;;10.18;3.28;;;14.80;99.90;;;;;;9178921;19;20018;-73
2022/07/07 03:02:53;;;;;;;8.13;2.78;;;14.60;99.90;;;;;;9176566;19;20025;-72
2022/07/07 03:05:57;;;;;;;7.25;3.20;;;14.60;99.90;;;;;;9181361;19;20074;-72
2022/07/07 03:09:01;;;;;;;7.75;3.13;;;14.50;99.90;;;;;;9179160;19;20050;-73
2022/07/07 03:12:08;;;;;;;5.80;3.05;;;14.40;99.90;;;;;;9185039;19;20003;-72
2022/07/07 03:15:13;;;;;;;9.18;3.20;;;14.60;99.90;;;;;;9188267;19;20015;-72
2022/07/07 03:18:17;;;;;;;7.43;3.28;;;14.60;99.90;;;;;;9185305;19;20014;-72
2022/07/07 03:21:21;;;;;;;5.95;3.15;;;14.70;99.90;;;;;;9186479;19;20018;-72
2022/07/07 03:24:26;;;;;;;8.00;3.47;;;14.60;99.90;;;;;;9187237;19;20014;-72
2022/07/07 03:27:33;;;;;;;9.32;3.25;;;14.50;99.90;;;;;;9186980;19;20497;-72
2022/07/07 03:30:37;;;;;;;5.30;3.30;;;14.60;99.90;;;;;;9187685;19;20018;-72
2022/07/07 03:33:41;;;;;;;8.73;3.22;;;14.60;99.90;;;;;;9185516;19;20525;-73
2022/07/07 03:36:45;;;;;;;10.57;3.15;;;14.40;99.90;;;;;;9186980;19;20030;-73
2022/07/07 03:39:49;;;;;;;8.88;2.92;;;14.70;99.90;;;;;;9186516;19;20409;-72
2022/07/07 03:42:55;;;;;;;8.00;3.20;;;14.70;99.90;;;;;;9181999;19;20019;-72
2022/07/07 03:45:59;;;;;;;7.47;2.80;;;14.60;99.90;;;;;;9185378;19;20030;-73
2022/07/07 03:49:03;;;;;;;13.00;3.30;;;14.70;99.90;;;;;;9184291;19;20489;-73
2022/07/07 03:52:08;;;;;;;8.38;2.83;;;14.40;99.90;;;;;;9179720;19;20367;-72
2022/07/07 03:55:12;;;;;;;9.63;2.85;;;14.60;99.90;;;;;;9182934;19;20074;-74
2022/07/07 03:58:19;;;;;;;6.65;2.10;;;14.40;99.90;;;;;;9185446;19;20014;-73
2022/07/07 04:01:22;;;;;;;4.00;1.50;;;14.90;99.90;;;;;;9185005;19;20082;-73
2022/07/07 04:04:26;;;;;;;6.00;1.55;;;14.30;99.90;;;;;;9187296;19;20018;-72
2022/07/07 04:07:30;;;;;;;6.03;1.88;;;14.50;99.90;;;;;;9185397;19;20014;-73
2022/07/07 04:10:34;;;;;;;5.10;1.60;;;14.40;99.90;;;;;;9181070;19;20015;-73
2022/07/07 04:13:41;;;;;;;4.38;1.30;;;14.40;99.90;;;;;;9184061;19;20018;-73
2022/07/07 04:16:44;;;;;;;9.10;1.60;;;14.40;99.90;;;;;;9185853;19;20078;-73
2022/07/07 04:19:48;;;;;;;5.00;1.40;;;14.50;99.90;;;;;;9182849;19;20077;-73
2022/07/07 04:22:52;;;;;;;8.93;1.40;;;14.40;99.90;;;;;;9179349;19;20046;-73
2022/07/07 04:25:57;;;;;;;8.13;1.65;;;14.30;99.90;;;;;;9187425;19;20018;-72
2022/07/07 04:29:03;;;;;;;7.20;1.38;;;14.40;99.90;;;;;;9184559;19;20018;-72
2022/07/07 04:32:08;;;;;;;6.90;1.40;;;14.60;99.90;;;;;;9181410;19;20010;-72
2022/07/07 04:35:12;;;;;;;7.65;1.20;;;14.40;99.90;;;;;;9182943;19;20018;-72
2022/07/07 04:38:16;;;;;;;7.53;1.40;;;14.30;99.90;;;;;;9181843;19;20363;-72
2022/07/07 04:41:20;;;;;;;6.95;1.30;;;14.40;99.90;;;;;;9183630;19;20431;-72
2022/07/07 04:44:27;;;;;;;12.57;1.92;;;14.20;99.90;;;;;;9181186;19;20024;-73
2022/07/07 04:47:30;;;;;;;6.15;1.20;;;14.00;99.90;;;;;;9184954;19;20478;-72
2022/07/07 04:50:34;;;;;;;8.10;1.38;;;13.90;99.90;;;;;;9182276;19;20018;-72
2022/07/07 04:53:38;;;;;;;5.43;1.38;;;14.20;99.90;;;;;;9180779;19;20043;-72
2022/07/07 04:56:42;;;;;;;7.70;1.63;;;13.90;99.90;;;;;;9180588;19;20569;-72
2022/07/07 04:59:49;;;;;;;7.25;1.42;;;14.20;99.90;;;;;;9182043;19;20014;-72
2022/07/07 05:02:53;;;;;;;12.13;2.15;;;14.30;99.90;;;;;;9180269;19;20016;-72
2022/07/07 05:05:56;;;;;;;7.50;1.55;;;14.30;99.90;;;;;;9181855;19;20033;-72
2022/07/07 05:09:01;;;;;;;5.50;1.50;;;14.20;99.90;;;;;;9182866;19;20018;-72
2022/07/07 05:12:05;;;;;;;6.53;1.73;;;14.00;99.90;;;;;;9181145;19;20110;-72
2022/07/07 05:15:12;;;;;;;4.43;1.40;;;13.90;99.90;;;;;;9179237;19;20014;-72
2022/07/07 05:18:17;;;;;;;10.70;1.88;;;14.00;99.90;;;;;;9179204;19;20010;-72
2022/07/07 05:21:21;;;;;;;8.52;1.70;;;13.80;99.90;;;;;;9182924;19;20018;-72
2022/07/07 05:24:25;;;;;;;8.48;2.03;;;13.90;99.90;;;;;;9180845;19;20022;-72
2022/07/07 05:27:30;;;;;;;8.65;1.83;;;14.00;99.90;;;;;;9182356;19;20491;-72
2022/07/07 05:30:36;;;;;;;9.52;2.10;;;14.30;99.90;;;;;;9180419;19;20018;-72
2022/07/07 05:33:40;;;;;;;7.80;1.80;;;13.60;99.90;;;;;;9169578;19;20407;-72
2022/07/07 05:36:44;;;;;;;9.90;2.20;;;13.90;99.90;;;;;;9181453;19;20022;-72
2022/07/07 05:39:48;;;;;;;12.07;2.40;;;13.90;99.90;;;;;;9183406;19;20006;-72
2022/07/07 05:42:52;;;;;;;10.45;2.35;;;13.90;99.90;;;;;;9179695;19;20018;-71
2022/07/07 05:45:59;;;;;;;10.45;2.72;;;13.90;99.90;;;;;;9183283;19;20022;-72
2022/07/07 05:49:04;;;;;;;11.27;1.95;;;14.20;99.90;;;;;;9179170;19;20023;-72
2022/07/07 05:52:09;;;;;;;8.65;2.22;;;14.00;99.90;;;;;;9175970;19;20011;-72
2022/07/07 05:55:13;;;;;;;11.10;2.10;;;14.30;99.90;;;;;;9180671;19;20029;-72
2022/07/07 05:58:18;;;;;;;8.10;1.70;;;13.90;99.90;;;;;;9181588;19;20026;-72
2022/07/07 06:01:24;;;;;;;11.65;2.10;;;14.00;99.90;;;;;;9181683;19;20491;-72
2022/07/07 06:04:28;;;;;;;8.75;2.47;;;14.30;99.90;;;;;;9175757;19;20014;-74
2022/07/07 06:07:32;;;;;;;10.02;2.83;;;14.00;99.90;;;;;;9180458;19;20518;-73
2022/07/07 06:10:36;;;;;;;11.02;2.25;;;14.00;99.90;;;;;;9184151;19;20010;-71
2022/07/07 06:13:40;;;;;;;10.38;2.30;;;;;;;;;;9180170;19;20018;-75
2022/07/07 06:16:47;;;;;;;7.50;2.13;;;14.30;99.90;;;;;;9176164;19;20033;-71
2022/07/07 06:19:51;;;;;;;11.50;2.92;;;14.00;99.90;;;;;;9181765;19;20506;-71
2022/07/07 06:22:55;;;;;;;10.68;2.75;;;14.00;99.90;;;;;;9178601;19;20476;-71
2022/07/07 06:26:02;;;;;;;8.80;1.90;;;14.10;99.90;;;;;;9176268;19;20033;-74
2022/07/07 06:29:07;;;;;;;9.02;2.00;;;14.00;99.90;;;;;;9179308;19;20019;-73
2022/07/07 06:32:15;;;;;;;10.07;2.17;;;14.10;99.90;;;;;;9178847;19;20025;-72
2022/07/07 06:35:20;;;;;;;;;;;14.10;99.90;;;;;;9179466;19;20025;-73
2022/07/07 06:38:25;;;;;;;13.50;2.10;;;13.80;99.90;;;;;;9177797;19;20442;-73
2022/07/07 06:41:37;;;;;;;9.48;2.30;;;14.20;99.90;;;;;;9178900;19;20047;-73
2022/07/07 06:44:41;;;;;;;8.05;1.85;;;14.10;99.90;;;;;;9180626;19;20015;-72
2022/07/07 06:47:47;;;;;;;8.57;2.15;;;14.30;99.90;;;;;;9187073;19;20022;-73
2022/07/07 06:50:51;;;;;;;11.27;2.30;;;14.20;99.90;;;;;;9186314;19;20546;-72
2022/07/07 06:53:56;;;;;;;12.77;2.03;;;14.00;99.90;;;;;;9184373;19;20088;-72
2022/07/07 06:56:59;;;;;;;6.68;2.10;;;14.40;99.90;;;;;;9182142;19;20011;-73
2022/07/07 07:00:04;;;;;;;7.32;2.50;;;14.20;99.90;;;;;;9187912;19;20019;-73
2022/07/07 07:03:10;;;;;;;9.88;2.38;;;14.50;99.90;;;;;;9186911;19;20090;-72
2022/07/07 07:06:14;;;;;;;10.27;2.05;;;14.60;99.90;;;;;;9186692;19;20034;-72
2022/07/07 07:09:18;;;;;;;9.20;2.15;;;14.50;99.90;;;;;;9189046;19;20018;-73
2022/07/07 07:12:22;;;;;;;9.60;2.47;;;14.60;99.90;;;;;;9183326;19;20117;-72
2022/07/07 07:15:26;;;;;;;11.25;2.15;;;14.70;99.90;;;;;;9183272;19;20475;-73
2022/07/07 07:18:32;;;;;;;8.48;1.83;;;14.70;99.90;;;;;;9189519;19;20029;-72
2022/07/07 07:21:36;;;;;;;13.40;2.35;;;14.70;99.90;;;;;;9187899;19;20014;-73
2022/07/07 07:24:40;;;;;;;9.30;1.98;;;14.70;99.90;;;;;;9184121;19;20018;-73
2022/07/07 07:27:44;;;;;;;7.05;1.73;;;14.40;99.90;;;;;;9185965;19;20078;-73
2022/07/07 07:30:49;;;;;;;10.23;2.10;;;14.40;99.90;;;;;;9188749;19;20047;-72
2022/07/07 07:33:56;;;;;;;7.75;2.17;;;14.70;99.90;;;;;;9187275;19;20518;-72
2022/07/07 07:37:00;;;;;;;5.85;2.08;;;15.10;99.90;;;;;;9182515;19;20511;-73
2022/07/07 07:40:06;;;;;;;8.70;2.20;;;15.20;99.90;;;;;;9183275;19;20377;-73
2022/07/07 07:43:10;;;;;;;7.88;2.30;;;14.80;99.90;;;;;;9183957;19;20007;-73
2022/07/07 07:46:14;;;;;;;8.48;2.10;;;15.00;99.90;;;;;;9187225;19;20029;-72
2022/07/07 07:49:20;;;;;;;8.82;2.60;;;14.80;99.90;;;;;;9181828;19;20094;-73
2022/07/07 07:52:24;;;;;;;7.20;2.10;;;15.00;99.90;;;;;;9181488;19;20022;-73
2022/07/07 07:55:28;;;;;;;10.13;2.35;;;14.80;99.90;;;;;;9180654;19;20011;-73
2022/07/07 07:58:32;;;;;;;8.70;2.20;;;15.30;99.90;;;;;;9182622;19;20033;-73
2022/07/07 08:01:37;;;;;;;5.70;1.75;;;15.80;99.90;;;;;;9183202;19;20018;-72
2022/07/07 08:04:43;;;;;;;8.50;1.65;;;15.40;99.90;;;;;;9183532;19;20047;-73
2022/07/07 08:07:48;;;;;;;8.48;1.63;;;15.30;99.90;;;;;;9187094;19;20050;-73
2022/07/07 08:10:52;;;;;;;5.05;1.20;;;16.70;99.90;;;;;;9180566;19;20376;-73
2022/07/07 08:13:56;;;;;;;3.47;1.30;;;15.80;99.90;;;;;;9186505;19;20022;-73
2022/07/07 08:17:00;;;;;;;6.22;1.30;;;15.30;99.90;;;;;;9183146;19;20019;-73
2022/07/07 08:20:07;;;;;;;3.92;1.40;;;15.20;99.90;;;;;;9181214;19;20022;-72
2022/07/07 08:23:11;;;;;;;4.85;1.15;;;15.10;99.90;;;;;;9182818;19;20051;-73
2022/07/07 08:26:15;;;;;;;9.20;1.38;;;15.50;99.90;;;;;;9178861;19;20017;-73
2022/07/07 08:29:19;;;;;;;4.18;1.38;;;15.30;99.90;;;;;;9181190;19;20014;-72
2022/07/07 08:32:24;;;;;;;5.88;0.98;;;15.70;99.90;;;;;;9183100;19;20034;-73
2022/07/07 08:35:31;;;;;;;4.07;1.00;;;15.80;99.90;;;;;;9179916;19;20086;-73
2022/07/07 08:38:35;;;;;;;3.28;1.00;;;15.80;99.90;;;;;;9180951;19;20014;-73
2022/07/07 08:41:40;;;;;;;4.07;1.10;;;15.90;99.90;;;;;;9180536;19;20021;-73
2022/07/07 08:44:44;;;;;;;5.15;1.30;;;15.80;99.90;;;;;;9182985;19;20111;-73
2022/07/07 08:47:48;;;;;;;2.97;1.00;;;15.80;99.90;;;;;;9179159;19;20014;-73
2022/07/07 08:50:54;;;;;;;6.35;1.20;;;15.80;99.90;;;;;;9182188;19;20098;-73
2022/07/07 08:53:58;;;;;;;3.20;1.35;;;15.50;99.90;;;;;;9184337;19;20015;-73
2022/07/07 08:57:02;;;;;;;4.57;1.45;;;15.70;99.90;;;;;;9178849;19;20447;-73
2022/07/07 09:00:07;;;;;;;3.42;1.35;;;15.40;99.90;;;;;;9179801;19;20306;-73
2022/07/07 09:03:12;;;;;;;6.15;1.50;;;15.30;99.90;;;;;;9185867;19;20014;-73
2022/07/07 09:06:18;;;;;;;5.22;1.50;;;15.50;99.90;;;;;;9180895;19;20384;-73
2022/07/07 09:09:29;;;;;;;;;;;15.40;99.90;;;;;;9185364;19;20018;-73
2022/07/07 09:12:35;;;;;;;5.97;1.30;;;15.60;99.90;;;;;;9180361;19;19922;-73
2022/07/07 09:15:41;;;;;;;5.50;1.30;;;16.00;99.90;;;;;;9179232;19;20047;-74
2022/07/07 09:18:48;;;;;;;6.55;1.38;;;16.10;99.90;;;;;;9182352;19;20340;-73
2022/07/07 09:21:54;;;;;;;5.78;1.48;;;15.90;99.90;;;;;;9183860;19;20018;-74
2022/07/07 09:24:59;;;;;;;9.25;1.45;;;15.70;99.90;;;;;;9183634;19;20017;-74
2022/07/07 09:28:06;;;;;;;6.55;1.52;;;15.90;99.90;;;;;;9178740;19;20570;-74
2022/07/07 09:31:10;;;;;;;6.07;1.42;;;15.70;99.90;;;;;;9183553;19;20344;-74
2022/07/07 09:34:15;;;;;;;5.85;1.55;;;15.70;99.90;;;;;;9181839;19;20086;-74
2022/07/07 09:40:52;;;;;;;7.85;1.92;;;15.80;99.90;;;;;;9182140;19;20045;-74
2022/07/07 09:43:56;;;;;;;5.35;2.05;;;15.60;99.90;;;;;;9177884;19;20360;-74
2022/07/07 09:47:11;;;;;;;4.43;1.70;;;15.20;99.90;;;;;;9177254;19;20011;-73
2022/07/07 09:50:17;;;;;;;7.90;1.77;;;15.60;99.90;;;;;;9180304;19;20014;-73
2022/07/07 09:53:24;;;;;;;6.80;2.03;;;15.60;99.90;;;;;;9181032;19;20037;-74
2022/07/07 09:56:31;;;;;;;5.50;1.92;;;15.50;99.90;;;;;;9179156;19;20014;-74
2022/07/07 09:59:35;;;;;;;6.68;2.17;;;15.80;99.90;;;;;;9182566;19;20010;-74
2022/07/07 10:02:41;;;;;;;5.55;1.75;;;15.80;99.90;;;;;;9177444;19;20014;-73
2022/07/07 10:05:46;;;;;;;7.15;1.58;;;15.80;99.90;;;;;;9179847;19;20482;-74
2022/07/07 10:09:00;;;;;;;6.18;1.65;;;15.70;99.90;;;;;;9173563;19;20010;-72
2022/07/07 10:12:06;;;;;;;10.23;1.75;;;15.80;99.90;;;;;;9178592;19;20014;-72
2022/07/07 10:15:11;;;;;;;4.32;1.33;;;15.90;99.90;;;;;;9176326;19;20393;-72
2022/07/07 10:18:15;;;;;;;4.78;1.50;;;15.80;99.90;;;;;;9173481;19;20037;-70
2022/07/07 10:21:19;;;;;;;5.85;1.60;;;15.90;99.90;;;;;;9184427;19;20110;-72
2022/07/07 10:24:29;;;;;;;7.38;1.60;;;16.00;99.90;;;;;;9187924;19;20014;-72
2022/07/07 10:27:33;;;;;;;5.75;1.88;;;15.80;99.90;;;;;;9188232;19;20015;-71
2022/07/07 10:30:37;;;;;;;7.63;1.90;;;15.70;99.90;;;;;;9187847;19;20019;-70
2022/07/07 10:33:41;;;;;;;10.02;2.60;;;15.50;99.90;;;;;;9187079;19;20018;-70
2022/07/07 10:37:03;;;;;;;9.73;2.25;;;15.40;99.90;;;;;;9183511;19;20047;-69
2022/07/07 10:40:14;;;;;;;10.45;2.28;;;15.40;99.90;;;;;;9181244;19;20014;-69
2022/07/07 10:43:28;;;;;;;9.70;2.33;;;15.40;99.90;;;;;;9184641;19;20047;-69
2022/07/07 10:46:32;;;;;;;6.93;1.98;;;15.80;99.90;;;;;;9187109;19;20011;-73
2022/07/07 10:49:41;;;;;;;11.15;2.08;;;15.70;99.90;;;;;;9184825;19;20452;-70
2022/07/07 10:52:45;;;;;;;8.98;2.53;;;14.80;99.90;;;;;;9187056;19;20074;-70
2022/07/07 10:56:02;;;;;;;13.40;2.25;;;15.60;99.90;;;;;;9184542;19;20029;-70
2022/07/07 10:59:06;;;;;;;14.18;2.33;;;15.60;99.90;;;;;;9185886;19;20381;-70
2022/07/07 11:02:13;;;;;;;11.38;2.60;;;15.40;99.90;;;;;;9182807;19;20123;-70
2022/07/07 11:05:33;;;;;;;18.35;3.00;;;15.40;99.90;;;;;;9186626;19;20010;-70
2022/07/07 11:08:39;;;;;;;17.80;3.50;;;15.30;99.90;;;;;;9187578;19;20022;-70
2022/07/07 11:11:45;;;;;;;14.18;2.78;;;15.30;99.90;;;;;;9182829;19;20036;-70
2022/07/07 11:14:58;;;;;;;13.63;2.67;;;15.30;99.90;;;;;;9185142;19;20041;-70
2022/07/07 11:18:11;;;;;;;17.10;3.00;;;15.10;99.90;;;;;;9183477;19;20022;-70
2022/07/07 11:21:16;;;;;;;14.30;2.78;;;15.30;99.90;;;;;;9181406;19;20041;-70
2022/07/07 11:24:21;;;;;;;15.98;2.45;;;15.70;99.90;;;;;;9188247;19;20366;-70
2022/07/07 11:27:32;;;;;;;14.10;3.00;;;15.50;99.90;;;;;;9185151;19;20077;-70
2022/07/07 11:30:37;;;;;;;9.68;2.10;;;15.50;99.90;;;;;;9181719;19;20018;-69
2022/07/07 11:33:41;;;;;;;10.25;2.25;;;15.70;99.90;;;;;;9176076;19;20021;-70
2022/07/07 11:36:45;;;;;;;11.98;2.35;;;14.10;99.90;;;;;;9182537;19;20025;-70
2022/07/07 11:39:50;;;;;;;9.93;2.35;;;15.80;99.90;;;;;;9185401;19;20002;-69
2022/07/07 11:43:00;;;;;;;8.35;1.98;;;15.80;99.90;;;;;;9183222;19;20048;-69
2022/07/07 11:46:04;;;;;;;11.95;2.75;;;16.10;99.90;;;;;;9185329;19;20023;-71
2022/07/07 11:49:08;;;;;;;14.80;3.00;;;16.00;99.90;;;;;;9184448;19;20026;-70
2022/07/07 11:52:15;;;;;;;10.70;2.40;;;15.90;99.90;;;;;;9183687;19;20025;-70
2022/07/07 11:55:19;;;;;;;12.40;2.58;;;15.90;99.90;;;;;;9183953;19;20011;-70
2022/07/07 11:58:26;;;;;;;13.75;2.65;;;15.60;99.90;;;;;;9183287;19;20018;-69
2022/07/07 12:01:33;;;;;;;17.25;2.70;;;16.00;99.90;;;;;;9183810;19;20019;-70
2022/07/07 12:04:37;;;;;;;13.10;3.22;;;15.90;99.90;;;;;;9184258;19;20010;-70
2022/07/07 12:07:44;;;;;;;15.30;3.13;;;15.90;99.90;;;;;;9184126;19;20039;-70
2022/07/07 12:10:53;;;;;;;14.77;3.17;;;15.80;99.90;;;;;;9185952;19;20043;-70
2022/07/07 12:14:00;;;;;;;11.85;2.65;;;15.90;99.90;;;;;;9182837;19;20387;-70
2022/07/07 12:17:03;;;;;;;11.85;2.53;;;15.90;99.90;;;;;;9177280;19;20088;-70
2022/07/07 12:20:17;;;;;;;10.48;2.60;;;16.10;99.90;;;;;;9181670;19;20015;-70
2022/07/07 12:23:21;;;;;;;8.40;1.92;;;15.80;99.90;;;;;;9182953;19;20015;-70
2022/07/07 12:26:27;;;;;;;13.63;2.60;;;15.60;99.90;;;;;;9173788;19;20011;-70
2022/07/07 12:29:33;;;;;;;9.37;2.50;;;15.60;99.90;;;;;;9177222;19;20043;-70
2022/07/07 12:32:37;;;;;;;15.45;3.03;;;15.80;99.90;;;;;;9182695;19;20039;-69
2022/07/07 12:35:42;;;;;;;12.85;2.78;;;15.60;99.90;;;;;;9182102;19;20018;-69
2022/07/07 12:38:47;;;;;;;11.38;2.55;;;15.70;99.90;;;;;;9182001;19;20015;-70
2022/07/07 12:41:55;;;;;;;;;;;15.90;99.90;;;;;;9177760;19;20011;-70
2022/07/07 12:45:15;;;;;;;10.88;2.60;;;15.90;99.90;;;;;;9177090;19;19919;-70
2022/07/07 12:48:20;;;;;;;12.90;3.00;;;15.80;99.90;;;;;;9180540;19;20014;-70
2022/07/07 12:51:28;;;;;;;16.77;2.97;;;16.10;99.90;;;;;;9179473;19;20037;-70
2022/07/07 12:54:34;;;;;;;12.13;2.45;;;16.30;99.90;;;;;;9182256;19;20010;-70
2022/07/07 12:57:38;;;;;;;15.30;2.70;;;15.70;99.90;;;;;;9179579;19;20011;-70
2022/07/07 13:00:57;;;;;;;12.98;2.97;;;15.90;99.90;;;;;;9179839;19;20035;-70
2022/07/07 13:04:01;;;;;;;13.27;2.92;;;16.00;99.90;;;;;;9180415;19;20014;-70
2022/07/07 13:07:05;;;;;;;13.15;2.50;;;16.00;99.90;;;;;;9180959;19;20473;-70
2022/07/07 13:10:10;;;;;;;14.07;2.53;;;15.90;99.90;;;;;;9181976;19;20010;-70
2022/07/07 13:13:13;;;;;;;10.38;2.70;;;15.90;99.90;;;;;;9181342;19;20021;-70
2022/07/07 13:16:20;;;;;;;16.30;2.90;;;16.00;99.90;;;;;;9180741;19;20014;-70
2022/07/07 13:19:25;;;;;;;10.43;2.63;;;15.60;99.90;;;;;;9178048;19;20059;-70
2022/07/07 13:22:29;;;;;;;13.73;2.85;;;15.70;99.90;;;;;;9182444;19;20081;-70
2022/07/07 13:25:32;;;;;;;19.00;2.95;;;15.90;99.90;;;;;;9183126;19;20018;-70
2022/07/07 13:28:36;;;;;;;15.40;3.15;;;15.80;99.90;;;;;;9179556;19;20014;-70
2022/07/07 13:31:43;;;;;;;13.95;2.40;;;16.00;99.90;;;;;;9176199;19;20221;-70
2022/07/07 13:34:47;;;;;;;9.43;2.25;;;16.00;99.90;;;;;;9179663;19;20018;-70
2022/07/07 13:37:51;;;;;;;13.80;2.50;;;15.80;99.90;;;;;;9179736;19;20022;-70
2022/07/07 13:40:55;;;;;;;8.55;2.08;;;15.90;99.90;;;;;;9179616;19;20047;-70
2022/07/07 13:44:00;;;;;;;9.32;2.25;;;15.70;99.90;;;;;;9179335;19;20019;-70
2022/07/07 13:47:07;;;;;;;10.45;2.50;;;15.80;99.90;;;;;;9180587;19;20401;-70
2022/07/07 13:50:11;;;;;;;11.07;2.20;;;15.90;99.90;;;;;;9178383;19;20074;-70
2022/07/07 13:53:15;;;;;;;8.75;2.10;;;15.80;99.90;;;;;;9172630;19;20679;-70
2022/07/07 13:56:19;;;;;;;9.45;2.00;;;16.00;99.90;;;;;;9174919;19;20014;-70
2022/07/07 13:59:23;;;;;;;10.95;2.25;;;16.10;99.90;;;;;;9175738;19;20021;-70
2022/07/07 14:02:30;;;;;;;9.25;2.22;;;16.00;99.90;;;;;;9179098;19;20381;-70
2022/07/07 14:05:34;;;;;;;13.10;1.95;;;15.70;99.90;;;;;;9179456;19;20127;-70
2022/07/07 14:08:38;;;;;;;12.23;2.22;;;15.90;99.90;;;;;;9176609;19;20014;-70
2022/07/07 14:11:42;;;;;;;8.73;2.40;;;15.90;99.90;;;;;;9174061;19;20015;-70
2022/07/07 14:14:46;;;;;;;10.80;1.80;;;15.90;99.90;;;;;;9170466;19;20074;-70
2022/07/07 14:17:53;;;;;;;10.40;1.98;;;16.10;99.90;;;;;;9177686;19;20042;-70
2022/07/07 14:20:57;;;;;;;10.18;2.63;;;16.20;99.90;;;;;;9177641;19;20021;-70
2022/07/07 14:24:01;;;;;;;9.18;2.03;;;16.10;99.90;;;;;;9175761;19;20018;-70
2022/07/07 14:27:06;;;;;;;9.65;2.08;;;16.10;99.90;;;;;;9169057;19;20483;-70
2022/07/07 14:30:11;;;;;;;9.38;2.15;;;16.00;99.90;;;;;;9175725;19;20479;-70
2022/07/07 14:33:18;;;;;;;9.70;2.00;;;16.10;99.90;;;;;;9178047;19;20384;-70
2022/07/07 14:36:22;;;;;;;7.40;1.75;;;16.00;99.90;;;;;;9179058;19;20467;-70
2022/07/07 14:39:26;;;;;;;10.20;1.70;;;16.00;99.90;;;;;;9174322;19;20412;-70
2022/07/07 14:42:30;;;;;;;8.38;1.90;;;15.80;99.90;;;;;;9175994;19;20061;-70
2022/07/07 14:45:34;;;;;;;13.05;2.25;;;15.80;99.90;;;;;;9177052;19;20010;-70
2022/07/07 14:48:41;;;;;;;11.82;3.15;;;15.80;99.90;;;;;;9177531;19;20018;-70
2022/07/07 14:51:46;;;;;;;11.77;1.98;;;15.40;99.90;;;;;;9175536;19;20018;-70
2022/07/07 14:54:50;;;;;;;10.40;2.38;;;15.70;99.90;;;;;;9179347;19;20014;-70
2022/07/07 14:57:55;;;;;;;14.20;2.40;;;15.90;99.90;;;;;;9173298;19;20414;-70
2022/07/07 15:00:59;;;;;;;9.80;1.95;;;15.80;99.90;;;;;;9178410;19;20014;-70
2022/07/07 15:04:06;;;;;;;10.90;2.20;;;15.90;99.90;;;;;;9175348;19;20083;-73
2022/07/07 15:07:10;;;;;;;7.30;1.40;;;15.70;99.90;;;;;;9183841;19;20159;-72
2022/07/07 15:10:14;;;;;;;5.65;1.75;;;15.70;99.90;;;;;;9185957;19;20129;-71
2022/07/07 15:13:18;;;;;;;8.98;2.30;;;15.70;99.90;;;;;;9184484;19;20021;-68
2022/07/07 15:16:23;;;;;;;7.88;1.58;;;15.90;99.90;;;;;;9185439;19;20189;-71
2022/07/07 15:19:29;;;;;;;13.82;2.30;;;16.00;99.90;;;;;;9181762;19;20015;-71
2022/07/07 15:22:33;;;;;;;6.15;2.08;;;15.90;99.90;;;;;;9183384;19;20022;-71
2022/07/07 15:25:37;;;;;;;7.28;2.58;;;15.80;99.90;;;;;;9187428;19;20023;-71
2022/07/07 15:28:41;;;;;;;8.40;1.73;;;15.70;99.90;;;;;;9185467;19;20023;-71
2022/07/07 15:31:46;;;;;;;10.40;1.90;;;15.60;99.90;;;;;;9185385;19;20029;-70
2022/07/07 15:34:53;;;;;;;8.57;2.05;;;15.70;99.90;;;;;;9184412;19;20025;-71
2022/07/07 15:37:57;;;;;;;8.63;2.50;;;15.50;99.90;;;;;;9182257;19;20487;-71
2022/07/07 15:41:01;;;;;;;6.68;2.03;;;15.50;99.90;;;;;;9181473;19;20021;-71
2022/07/07 15:44:05;;;;;;;10.13;2.60;;;15.40;99.90;;;;;;9180690;19;20026;-70
2022/07/07 15:47:10;;;;;;;11.57;2.53;;;15.40;99.90;;;;;;9184676;19;20019;-70
2022/07/07 15:50:17;;;;;;;9.13;2.25;;;15.40;99.90;;;;;;9181928;19;20010;-72
2022/07/07 15:53:21;;;;;;;9.27;2.30;;;15.30;99.90;;;;;;9179814;19;20019;-71
2022/07/07 15:56:25;;;;;;;8.68;2.83;;;15.20;99.90;;;;;;9182524;19;20086;-71
2022/07/07 15:59:29;;;;;;;14.30;3.58;;;15.20;99.90;;;;;;9181429;19;20091;-70
2022/07/07 16:02:33;;;;;;;8.90;2.67;;;15.10;99.90;;;;;;9183870;19;20019;-71
2022/07/07 16:05:40;;;;;;;9.95;2.22;;;15.30;99.90;;;;;;9179494;19;20011;-71